Time;durP1;ratioP1;P1;durP2;ratioP2;P2;SDS_P1;SDS_P2;PMS_P1;PMS_P2;Temp;Humidity;BMP_temperature;BMP_pressure;BME280_temperature;BME280_humidity;BME280_pressure;Samples;Min_cycle;Max_cycle;Signal;HPM_P1;HPM_P2
2022/06/06 00:01:48;;;;;;;11.70;5.78;;;13.30;99.90;;;;;;5027780;28;20042;-75
2022/06/06 00:04:14;;;;;;;13.00;5.50;;;13.30;99.90;;;;;;5039312;28;20086;-75
2022/06/06 00:06:40;;;;;;;11.48;5.00;;;13.30;99.90;;;;;;5047728;28;20041;-75
2022/06/06 00:09:07;;;;;;;13.60;5.03;;;13.30;99.90;;;;;;5031416;28;20029;-74
2022/06/06 00:11:36;;;;;;;13.32;5.38;;;13.30;99.90;;;;;;5042983;28;20112;-75
2022/06/06 00:14:03;;;;;;;8.93;4.38;;;13.30;99.90;;;;;;5047332;28;20032;-75
2022/06/06 00:16:29;;;;;;;9.38;3.95;;;13.30;99.90;;;;;;5029081;28;20087;-75
2022/06/06 00:18:55;;;;;;;12.05;4.85;;;13.30;99.90;;;;;;5052552;28;20021;-75
2022/06/06 00:21:21;;;;;;;8.32;3.67;;;13.20;99.90;;;;;;5028113;28;20810;-75
2022/06/06 00:23:46;;;;;;;12.13;4.88;;;13.20;99.90;;;;;;5028578;28;20036;-75
2022/06/06 00:26:14;;;;;;;10.15;3.70;;;13.30;99.90;;;;;;5047763;28;20372;-75
2022/06/06 00:28:43;;;;;;;13.15;4.90;;;13.30;99.90;;;;;;5027008;28;20776;-74
2022/06/06 00:36:38;;;;;;;13.15;4.22;;;13.20;99.90;;;;;;5046834;28;20039;-75
2022/06/06 00:39:07;;;;;;;13.68;4.15;;;13.10;99.90;;;;;;5028633;28;20080;-75
2022/06/06 00:41:41;;;;;;;7.18;3.40;;;13.10;99.90;;;;;;5048525;28;20511;-75
2022/06/06 00:44:10;;;;;;;9.70;3.60;;;13.10;99.90;;;;;;5050866;28;20542;-75
2022/06/06 00:46:42;;;;;;;10.18;3.47;;;13.10;99.90;;;;;;5039921;28;20087;-75
2022/06/06 00:49:13;;;;;;;10.50;4.07;;;13.10;99.90;;;;;;5029888;28;20094;-75
2022/06/06 00:51:39;;;;;;;8.27;3.20;;;13.10;99.90;;;;;;5026986;28;20088;-76
2022/06/06 00:54:06;;;;;;;10.30;3.80;;;13.10;99.90;;;;;;5056526;28;20503;-75
2022/06/06 00:56:39;;;;;;;7.90;3.75;;;13.10;99.90;;;;;;5056239;28;20041;-76
2022/06/06 00:59:19;;;;;;;13.55;4.38;;;13.10;99.90;;;;;;5033791;28;20029;-75
2022/06/06 01:01:46;;;;;;;8.80;3.75;;;13.10;99.90;;;;;;5025971;28;20570;-76
2022/06/06 01:04:15;;;;;;;10.27;4.10;;;13.10;99.90;;;;;;5043703;28;20079;-75
2022/06/06 01:06:44;;;;;;;11.38;4.25;;;13.20;99.90;;;;;;5047323;28;20028;-76
2022/06/06 01:09:11;;;;;;;;;;;13.20;99.90;;;;;;5046426;28;20087;-76
2022/06/06 01:11:41;;;;;;;13.93;4.53;;;13.20;99.90;;;;;;5025566;28;20025;-76
2022/06/06 01:14:10;;;;;;;9.25;4.00;;;13.20;99.90;;;;;;5047516;28;20401;-75
2022/06/06 01:16:54;;;;;;;12.47;3.73;;;13.10;99.90;;;;;;5043193;28;20037;-76
2022/06/06 01:19:38;;;;;;;11.20;3.95;;;13.10;99.90;;;;;;5050282;28;20036;-75
2022/06/06 01:22:35;;;;;;;11.15;3.67;;;13.10;99.90;;;;;;5045262;28;20025;-75
2022/06/06 01:25:28;;;;;;;12.52;4.60;;;13.10;99.90;;;;;;5046190;28;20025;-75
2022/06/06 01:27:58;;;;;;;10.73;3.22;;;13.10;99.90;;;;;;5046452;28;20033;-75
2022/06/06 01:30:37;;;;;;;10.05;3.65;;;13.10;99.90;;;;;;5039669;28;20037;-75
2022/06/06 01:33:09;;;;;;;13.87;4.47;;;13.10;99.90;;;;;;5027729;28;20106;-75
2022/06/06 01:35:39;;;;;;;11.65;4.00;;;13.10;99.90;;;;;;5032512;28;20025;-76
2022/06/06 01:38:06;;;;;;;10.98;4.00;;;13.10;99.90;;;;;;5025230;28;20028;-76
2022/06/06 01:40:42;;;;;;;10.55;4.05;;;13.10;99.90;;;;;;5036927;28;20667;-75
2022/06/06 01:43:17;;;;;;;14.95;4.65;;;13.10;99.90;;;;;;5031315;28;20720;-75
2022/06/06 01:46:08;;;;;;;13.02;4.97;;;13.10;99.90;;;;;;5045724;28;20044;-78
2022/06/06 01:48:37;;;;;;;11.65;3.30;;;13.20;99.90;;;;;;5043913;28;20029;-74
2022/06/06 01:51:11;;;;;;;10.00;3.78;;;13.20;99.90;;;;;;5030009;28;20037;-74
2022/06/06 01:53:38;;;;;;;11.40;4.07;;;13.20;99.90;;;;;;5040086;28;20037;-75
2022/06/06 01:56:06;;;;;;;12.55;4.30;;;13.20;99.90;;;;;;5039632;28;20024;-75
2022/06/06 01:58:33;;;;;;;10.77;4.72;;;13.20;99.90;;;;;;5039187;28;20028;-74
2022/06/06 02:00:59;;;;;;;12.68;4.43;;;13.20;99.90;;;;;;5021024;28;20037;-77
2022/06/06 02:03:25;;;;;;;12.60;4.57;;;13.20;99.90;;;;;;5038076;28;20022;-76
2022/06/06 02:05:51;;;;;;;11.70;4.57;;;13.20;99.90;;;;;;5024161;28;20071;-77
2022/06/06 02:08:17;;;;;;;15.20;4.45;;;13.20;99.90;;;;;;5028594;28;20037;-77
2022/06/06 02:10:43;;;;;;;14.38;4.60;;;13.20;99.90;;;;;;5026720;28;20029;-76
2022/06/06 02:13:09;;;;;;;11.32;3.50;;;13.20;99.90;;;;;;5036720;28;20064;-77
2022/06/06 02:15:36;;;;;;;10.13;3.92;;;13.20;99.90;;;;;;5039631;28;20033;-76
2022/06/06 02:18:02;;;;;;;8.98;4.00;;;13.20;99.90;;;;;;5042106;28;20029;-76
2022/06/06 02:20:30;;;;;;;12.13;3.65;;;13.20;99.90;;;;;;5041469;28;20067;-76
2022/06/06 02:22:57;;;;;;;9.02;3.33;;;13.20;99.90;;;;;;5042343;28;20036;-76
2022/06/06 02:25:23;;;;;;;12.00;4.00;;;13.20;99.90;;;;;;5043787;28;20515;-76
2022/06/06 02:27:48;;;;;;;14.52;4.47;;;13.20;99.90;;;;;;5044504;28;20025;-77
2022/06/06 02:30:20;;;;;;;9.80;3.35;;;13.20;99.90;;;;;;5045390;28;20037;-76
2022/06/06 02:32:46;;;;;;;10.77;3.70;;;13.20;99.90;;;;;;5043396;28;20037;-76
2022/06/06 02:35:16;;;;;;;7.32;3.50;;;13.20;99.90;;;;;;5047153;28;20051;-76
2022/06/06 02:37:44;;;;;;;11.30;3.58;;;13.20;99.90;;;;;;5044406;28;20112;-76
2022/06/06 02:40:10;;;;;;;10.63;3.65;;;13.20;99.90;;;;;;5043719;28;20053;-77
2022/06/06 02:42:37;;;;;;;10.27;3.50;;;13.30;99.90;;;;;;5018056;28;20162;-76
2022/06/06 02:45:04;;;;;;;9.93;3.30;;;13.20;99.90;;;;;;5040076;28;20049;-76
2022/06/06 02:47:31;;;;;;;10.40;3.80;;;13.20;99.90;;;;;;5034137;28;20033;-76
2022/06/06 02:49:56;;;;;;;12.07;4.22;;;13.20;99.90;;;;;;5031344;28;20475;-76
2022/06/06 02:52:22;;;;;;;14.10;4.30;;;13.20;99.90;;;;;;5047550;28;20041;-76
2022/06/06 02:54:48;;;;;;;11.68;3.70;;;13.30;99.90;;;;;;5048611;28;20055;-76
2022/06/06 02:57:14;;;;;;;11.43;3.90;;;13.30;99.90;;;;;;5026997;28;20085;-76
2022/06/06 02:59:43;;;;;;;14.63;3.90;;;13.30;99.90;;;;;;5049399;28;20047;-79
2022/06/06 03:02:09;;;;;;;10.27;4.00;;;13.30;99.90;;;;;;5040407;28;20408;-76
2022/06/06 03:04:38;;;;;;;10.07;3.60;;;13.40;99.90;;;;;;5044505;28;20143;-77
2022/06/06 03:07:33;;;;;;;12.75;3.90;;;13.30;99.90;;;;;;5031863;28;20543;-76
2022/06/06 03:10:08;;;;;;;13.80;4.32;;;13.40;99.90;;;;;;5029968;28;20033;-76
2022/06/06 03:12:43;;;;;;;12.90;5.07;;;13.40;99.90;;;;;;5028989;28;20033;-77
2022/06/06 03:15:23;;;;;;;12.35;4.00;;;13.40;99.90;;;;;;5049819;28;20506;-75
2022/06/06 03:21:14;;;;;;;11.90;3.92;;;13.40;99.90;;;;;;5057289;28;20043;-77
2022/06/06 03:23:51;;;;;;;13.65;3.63;;;13.40;99.90;;;;;;5029795;28;20040;-75
2022/06/06 03:26:39;;;;;;;12.63;4.88;;;13.50;99.90;;;;;;5052470;28;20029;-76
2022/06/06 03:29:39;;;;;;;10.65;4.45;;;13.50;99.90;;;;;;5045567;28;20040;-75
2022/06/06 03:32:31;;;;;;;15.65;4.60;;;13.50;99.90;;;;;;5045816;28;20033;-77
2022/06/06 03:35:05;;;;;;;13.00;4.40;;;13.60;99.90;;;;;;5039183;28;20049;-76
2022/06/06 03:37:40;;;;;;;16.05;5.45;;;13.60;99.90;;;;;;5031481;28;20171;-78
2022/06/06 03:40:12;;;;;;;15.90;5.10;;;13.60;99.90;;;;;;5035043;28;20082;-77
2022/06/06 03:42:57;;;;;;;9.75;4.70;;;13.60;99.90;;;;;;5029991;28;20036;-79
2022/06/06 03:45:28;;;;;;;12.57;4.63;;;13.60;99.90;;;;;;5044736;28;20065;-78
2022/06/06 03:48:23;;;;;;;11.13;4.40;;;13.50;99.90;;;;;;5041795;28;20087;-76
2022/06/06 03:51:14;;;;;;;11.93;4.30;;;13.50;99.90;;;;;;5022221;28;20120;-78
2022/06/06 03:53:46;;;;;;;10.43;4.15;;;13.60;99.90;;;;;;5048844;28;20037;-76
2022/06/06 03:56:49;;;;;;;9.25;4.13;;;13.60;99.90;;;;;;5047370;28;20036;-77
2022/06/06 03:59:18;;;;;;;9.40;3.63;;;13.50;99.90;;;;;;5041309;28;20033;-78
2022/06/06 04:01:46;;;;;;;8.52;3.25;;;13.40;99.90;;;;;;5029973;28;20044;-78
2022/06/06 04:04:14;;;;;;;11.77;4.38;;;13.40;99.90;;;;;;5049673;28;20036;-77
2022/06/06 04:06:40;;;;;;;6.32;3.00;;;13.40;99.90;;;;;;5046683;28;20037;-77
2022/06/06 04:09:06;;;;;;;11.48;3.90;;;13.40;99.90;;;;;;5025588;28;20091;-78
2022/06/06 04:11:31;;;;;;;8.05;3.67;;;13.40;99.90;;;;;;5038422;28;20040;-78
2022/06/06 04:14:15;;;;;;;12.25;4.40;;;13.40;99.90;;;;;;5046665;28;20033;-81
2022/06/06 04:16:50;;;;;;;10.60;3.75;;;13.40;99.90;;;;;;5032867;28;20384;-77
2022/06/06 04:19:42;;;;;;;10.30;4.28;;;13.40;99.90;;;;;;5044574;28;20091;-80
2022/06/06 04:22:22;;;;;;;7.75;3.28;;;13.50;99.90;;;;;;5044343;28;20512;-79
2022/06/06 04:25:11;;;;;;;11.52;3.97;;;13.50;99.90;;;;;;5026862;28;20055;-77
2022/06/06 04:28:14;;;;;;;10.25;3.35;;;13.50;99.90;;;;;;5044614;28;20132;-79
2022/06/06 04:30:42;;;;;;;9.70;4.55;;;13.60;99.90;;;;;;5051382;28;20044;-77
2022/06/06 04:33:25;;;;;;;5.95;3.70;;;13.60;99.90;;;;;;5048606;28;20166;-77
2022/06/06 04:36:14;;;;;;;13.60;4.50;;;13.60;99.90;;;;;;5038998;28;20028;-77
2022/06/06 04:38:54;;;;;;;10.00;3.50;;;13.50;99.90;;;;;;5049428;28;20064;-75
2022/06/06 04:41:31;;;;;;;7.05;3.50;;;13.50;99.90;;;;;;5049262;28;20040;-77
2022/06/06 04:44:23;;;;;;;7.40;3.55;;;13.50;99.90;;;;;;5051542;28;20193;-78
2022/06/06 04:47:15;;;;;;;8.43;3.83;;;13.50;99.90;;;;;;5041493;28;20450;-76
2022/06/06 04:49:41;;;;;;;9.23;3.40;;;13.40;99.90;;;;;;5030661;28;20044;-77
2022/06/06 04:52:08;;;;;;;8.10;3.80;;;13.50;99.90;;;;;;5029532;28;20049;-76
2022/06/06 04:54:35;;;;;;;6.35;3.40;;;13.40;99.90;;;;;;5044498;28;20037;-75
2022/06/06 04:57:03;;;;;;;6.65;3.30;;;13.40;99.90;;;;;;5029384;28;20032;-76
2022/06/06 04:59:30;;;;;;;8.82;3.78;;;13.40;99.90;;;;;;5036947;28;20064;-77
2022/06/06 05:01:59;;;;;;;7.57;3.33;;;13.40;99.90;;;;;;5032558;28;20028;-77
2022/06/06 05:04:24;;;;;;;8.32;3.42;;;13.50;99.90;;;;;;5046295;28;20040;-74
2022/06/06 05:06:59;;;;;;;7.75;3.30;;;13.50;99.90;;;;;;5058623;28;20038;-75
2022/06/06 05:09:46;;;;;;;10.38;3.60;;;13.50;99.90;;;;;;5042135;28;20057;-75
2022/06/06 05:12:44;;;;;;;8.82;3.47;;;13.50;99.90;;;;;;5042516;28;20044;-75
2022/06/06 05:15:43;;;;;;;7.43;3.40;;;13.50;99.90;;;;;;5021988;28;20049;-75
2022/06/06 05:18:47;;;;;;;7.75;3.47;;;13.60;99.90;;;;;;5036996;28;20033;-75
2022/06/06 05:21:38;;;;;;;9.77;3.78;;;13.60;99.90;;;;;;5041766;28;20076;-75
2022/06/06 05:24:10;;;;;;;7.00;3.38;;;13.60;99.90;;;;;;5049939;28;20478;-75
2022/06/06 05:26:57;;;;;;;7.78;3.70;;;13.60;99.90;;;;;;5033000;28;20385;-76
2022/06/06 05:29:59;;;;;;;5.75;3.35;;;13.60;99.90;;;;;;5047389;28;20057;-79
2022/06/06 05:32:49;;;;;;;8.32;3.67;;;13.60;99.90;;;;;;5042903;28;20129;-76
2022/06/06 05:35:24;;;;;;;7.38;4.28;;;13.60;99.90;;;;;;5032199;28;20055;-75
2022/06/06 05:38:00;;;;;;;9.05;3.53;;;13.60;99.90;;;;;;5053165;28;20067;-76
2022/06/06 05:40:37;;;;;;;7.60;4.07;;;13.60;99.90;;;;;;5031099;28;20044;-77
2022/06/06 05:43:27;;;;;;;9.00;3.63;;;13.60;99.90;;;;;;5037129;28;20044;-76
2022/06/06 05:46:05;;;;;;;7.55;4.00;;;13.60;99.90;;;;;;5048887;28;20114;-78
2022/06/06 05:48:59;;;;;;;7.65;4.05;;;13.60;99.90;;;;;;5027112;28;20466;-78
2022/06/06 05:51:30;;;;;;;8.63;4.35;;;13.60;99.90;;;;;;5049233;28;20467;-77
2022/06/06 05:54:02;;;;;;;8.10;3.80;;;13.70;99.90;;;;;;5032815;28;20029;-77
2022/06/06 05:56:35;;;;;;;6.07;3.70;;;13.70;99.90;;;;;;5044821;28;20043;-75
2022/06/06 05:59:35;;;;;;;6.45;4.03;;;13.80;99.90;;;;;;5028657;28;20037;-77
2022/06/06 06:02:28;;;;;;;5.47;3.42;;;13.80;99.90;;;;;;5027456;28;20132;-76
2022/06/06 06:05:15;;;;;;;9.65;4.57;;;13.90;99.90;;;;;;5046448;28;20586;-78
2022/06/06 06:07:53;;;;;;;6.65;4.25;;;13.90;99.90;;;;;;5051360;28;20028;-77
2022/06/06 06:10:36;;;;;;;6.88;4.13;;;13.90;99.90;;;;;;5031578;28;20040;-76
2022/06/06 06:13:10;;;;;;;7.03;4.35;;;13.90;99.90;;;;;;5030201;28;20071;-77
2022/06/06 06:15:44;;;;;;;8.60;4.90;;;14.00;99.90;;;;;;5049088;28;20499;-77
2022/06/06 06:18:32;;;;;;;6.45;4.30;;;14.00;99.90;;;;;;5026468;28;20029;-77
2022/06/06 06:21:03;;;;;;;8.05;5.00;;;14.00;99.90;;;;;;5052815;28;20063;-75
2022/06/06 06:23:33;;;;;;;6.82;4.53;;;14.10;99.90;;;;;;5053027;28;20111;-76
2022/06/06 06:26:03;;;;;;;8.00;4.43;;;14.10;99.90;;;;;;5038832;28;20187;-76
2022/06/06 06:28:33;;;;;;;6.55;4.47;;;14.20;99.90;;;;;;5027011;28;20088;-76
2022/06/06 06:31:26;;;;;;;7.03;4.28;;;14.20;99.90;;;;;;5025504;28;20124;-76
2022/06/06 06:34:29;;;;;;;6.38;4.80;;;14.20;99.90;;;;;;5037163;28;20058;-78
2022/06/06 06:37:12;;;;;;;8.15;3.95;;;14.20;99.90;;;;;;5046186;28;20040;-76
2022/06/06 06:40:14;;;;;;;7.05;4.75;;;14.20;99.90;;;;;;5052734;28;20040;-76
2022/06/06 06:43:01;;;;;;;6.88;4.50;;;14.20;99.90;;;;;;5044503;28;20033;-76
2022/06/06 06:45:31;;;;;;;6.88;4.65;;;14.20;99.90;;;;;;5031565;28;20048;-77
2022/06/06 06:48:09;;;;;;;6.80;5.03;;;14.30;99.90;;;;;;5032587;28;20037;-79
2022/06/06 06:50:44;;;;;;;6.88;5.07;;;14.30;99.90;;;;;;5047548;28;20033;-77
2022/06/06 06:53:25;;;;;;;8.25;5.30;;;14.40;99.90;;;;;;5050945;28;20029;-78
2022/06/06 06:56:10;;;;;;;9.05;5.20;;;14.40;99.90;;;;;;5025651;28;20037;-76
2022/06/06 06:58:52;;;;;;;7.47;5.63;;;14.50;99.90;;;;;;5043598;28;20115;-76
2022/06/06 07:08:33;;;;;;;5.70;4.53;;;15.00;99.90;;;;;;5043767;28;20113;-79
2022/06/06 07:11:17;;;;;;;8.43;4.75;;;15.10;99.90;;;;;;4984320;28;20877;-76
2022/06/06 07:14:10;;;;;;;5.72;3.78;;;15.10;99.90;;;;;;4987703;28;20030;-76
2022/06/06 07:16:38;;;;;;;7.25;4.53;;;15.10;99.90;;;;;;4962874;28;20129;-75
2022/06/06 07:19:17;;;;;;;7.43;4.30;;;15.20;99.90;;;;;;4989877;28;20061;-77
2022/06/06 07:21:47;;;;;;;6.47;3.83;;;15.40;99.90;;;;;;4967480;28;20489;-75
2022/06/06 07:24:19;;;;;;;5.68;3.80;;;15.50;99.90;;;;;;4985988;28;20055;-75
2022/06/06 07:26:46;;;;;;;7.25;3.85;;;15.60;99.90;;;;;;4990607;28;20038;-74
2022/06/06 07:29:18;;;;;;;7.60;3.90;;;15.50;99.90;;;;;;4987994;28;20042;-76
2022/06/06 07:32:06;;;;;;;6.15;3.53;;;15.40;99.90;;;;;;4987688;28;20144;-74
2022/06/06 07:34:58;;;;;;;5.28;4.00;;;15.40;99.90;;;;;;4988011;28;20041;-75
2022/06/06 07:37:47;;;;;;;5.95;4.05;;;15.40;99.90;;;;;;4984062;28;20071;-74
2022/06/06 07:40:34;;;;;;;6.18;3.67;;;15.40;99.30;;;;;;4987853;28;20046;-75
2022/06/06 07:43:14;;;;;;;4.10;2.90;;;15.50;99.90;;;;;;4988107;28;20077;-75
2022/06/06 07:45:58;;;;;;;4.75;3.22;;;15.60;99.90;;;;;;4980177;28;20117;-74
2022/06/06 07:48:42;;;;;;;3.72;2.40;;;15.70;99.80;;;;;;5029731;28;20045;-76
2022/06/06 07:51:19;;;;;;;5.03;2.78;;;15.70;98.60;;;;;;5030347;28;20499;-74
2022/06/06 07:54:04;;;;;;;3.45;2.30;;;15.70;98.50;;;;;;5038259;28;20097;-74
2022/06/06 07:56:39;;;;;;;4.63;2.60;;;15.70;97.90;;;;;;5059288;28;20025;-75
2022/06/06 07:59:38;;;;;;;5.15;2.58;;;15.90;97.50;;;;;;5059779;28;20029;-76
2022/06/06 08:02:34;;;;;;;4.50;2.72;;;16.00;98.50;;;;;;5036808;28;20048;-77
2022/06/06 08:05:38;;;;;;;4.82;2.35;;;16.10;97.60;;;;;;5018626;28;20030;-76
2022/06/06 08:08:14;;;;;;;4.53;2.30;;;16.20;97.50;;;;;;5039181;28;20036;-75
2022/06/06 08:10:44;;;;;;;5.22;2.63;;;16.10;97.10;;;;;;5037518;28;20045;-75
2022/06/06 08:13:19;;;;;;;5.57;2.65;;;16.00;97.00;;;;;;5036741;28;20608;-74
2022/06/06 08:15:57;;;;;;;5.53;2.72;;;15.90;96.90;;;;;;5048864;28;20029;-75
2022/06/06 08:18:35;;;;;;;6.35;2.97;;;15.80;97.40;;;;;;5049113;28;20684;-74
2022/06/06 08:21:05;;;;;;;5.38;2.88;;;15.80;97.70;;;;;;5048630;28;20033;-75
2022/06/06 08:23:37;;;;;;;4.97;3.00;;;15.80;97.40;;;;;;5049007;28;20106;-75
2022/06/06 08:26:03;;;;;;;4.82;3.10;;;15.80;97.80;;;;;;5047927;28;20025;-77
2022/06/06 08:28:31;;;;;;;4.18;2.95;;;15.90;97.20;;;;;;5031221;28;20066;-74
2022/06/06 08:30:57;;;;;;;5.20;2.90;;;16.00;97.80;;;;;;5049501;28;20037;-74
2022/06/06 08:33:24;;;;;;;7.18;3.15;;;16.10;97.90;;;;;;5043972;28;20037;-73
2022/06/06 08:36:08;;;;;;;4.53;2.90;;;16.10;96.00;;;;;;5028926;28;20110;-74
2022/06/06 08:38:34;;;;;;;5.93;3.30;;;16.10;96.60;;;;;;5049464;28;20076;-73
2022/06/06 08:41:08;;;;;;;6.38;3.88;;;16.10;97.10;;;;;;5048243;28;20069;-74
2022/06/06 08:43:52;;;;;;;4.75;2.90;;;16.10;98.00;;;;;;5027834;28;20122;-74
2022/06/06 08:46:41;;;;;;;4.70;2.80;;;16.20;97.90;;;;;;5047873;28;20550;-75
2022/06/06 08:52:47;;;;;;;4.85;3.13;;;16.60;95.90;;;;;;5043461;28;20563;-74
2022/06/06 08:55:13;;;;;;;5.93;3.00;;;16.60;95.90;;;;;;5048098;28;20057;-75
2022/06/06 08:58:00;;;;;;;4.00;2.70;;;16.50;96.10;;;;;;5044363;28;20452;-74
2022/06/06 09:00:40;;;;;;;5.13;2.60;;;16.40;96.10;;;;;;5046020;28;20507;-75
2022/06/06 09:03:12;;;;;;;4.60;2.53;;;16.30;95.90;;;;;;5044017;28;20051;-78
2022/06/06 09:06:06;;;;;;;6.65;2.80;;;16.20;95.80;;;;;;5045208;28;20094;-75
2022/06/06 09:08:32;;;;;;;6.45;3.10;;;16.20;95.50;;;;;;5040313;28;20143;-74
2022/06/06 09:11:35;;;;;;;3.85;2.65;;;16.20;95.60;;;;;;5048535;28;20132;-72
2022/06/06 09:14:09;;;;;;;4.63;2.97;;;16.20;95.90;;;;;;5047377;28;20025;-76
2022/06/06 09:16:59;;;;;;;4.07;2.80;;;16.20;95.80;;;;;;5052023;28;20037;-74
2022/06/06 09:19:24;;;;;;;;;;;16.10;95.30;;;;;;5048272;28;20934;-77
2022/06/06 09:22:08;;;;;;;5.30;3.03;;;16.10;95.80;;;;;;5048395;28;19967;-75
2022/06/06 09:24:52;;;;;;;4.03;2.50;;;16.00;96.20;;;;;;5030568;28;20116;-73
2022/06/06 09:27:35;;;;;;;6.00;2.92;;;16.00;95.80;;;;;;5029984;28;20039;-75
2022/06/06 09:30:07;;;;;;;5.68;3.60;;;16.00;95.70;;;;;;5028340;28;20029;-74
2022/06/06 09:32:54;;;;;;;5.40;3.60;;;15.90;97.10;;;;;;5046045;28;20120;-74
2022/06/06 09:36:19;;;;;;;8.43;3.53;;;15.90;97.40;;;;;;5028921;28;20116;-74
2022/06/06 09:39:14;;;;;;;12.20;3.85;;;15.90;99.30;;;;;;4984403;28;20179;-74
2022/06/06 09:42:07;;;;;;;13.55;3.55;;;15.80;99.80;;;;;;4981680;28;20097;-77
2022/06/06 09:44:44;;;;;;;13.07;3.45;;;15.60;99.90;;;;;;4961113;28;20069;-74
2022/06/06 09:47:32;;;;;;;13.68;4.32;;;15.50;99.90;;;;;;4983774;28;20068;-73
2022/06/06 09:50:35;;;;;;;11.30;3.50;;;15.40;99.90;;;;;;4979532;28;20081;-73
2022/06/06 09:53:38;;;;;;;8.70;3.30;;;15.30;99.90;;;;;;4983913;28;20497;-74
2022/06/06 09:59:44;;;;;;;9.75;3.20;;;15.30;99.90;;;;;;4982620;28;20050;-74
2022/06/06 10:02:37;;;;;;;11.95;3.15;;;15.40;99.90;;;;;;4968276;28;20054;-74
2022/06/06 10:05:11;;;;;;;7.60;2.72;;;15.50;99.90;;;;;;4985004;28;20038;-72
2022/06/06 10:08:01;;;;;;;14.40;3.20;;;15.60;99.90;;;;;;4968787;28;20084;-73
2022/06/06 10:10:57;;;;;;;12.05;3.38;;;15.60;99.90;;;;;;5028670;28;20041;-72
2022/06/06 10:14:00;;;;;;;12.45;3.65;;;15.60;99.90;;;;;;5046790;28;20032;-71
2022/06/06 10:17:09;;;;;;;10.30;3.10;;;15.50;99.90;;;;;;5046899;28;20082;-73
2022/06/06 10:19:42;;;;;;;9.02;2.80;;;15.40;99.90;;;;;;5032977;28;20566;-73
2022/06/06 10:22:44;;;;;;;8.82;2.95;;;15.40;99.90;;;;;;5039793;28;20060;-74
2022/06/06 10:25:25;;;;;;;9.80;3.33;;;15.30;99.90;;;;;;5044434;28;20506;-74
2022/06/06 10:28:06;;;;;;;11.80;2.90;;;15.20;99.90;;;;;;5041660;28;20028;-74
2022/06/06 10:30:51;;;;;;;10.63;3.03;;;15.20;99.90;;;;;;5043311;28;20033;-74
2022/06/06 10:33:43;;;;;;;11.60;3.40;;;15.20;99.90;;;;;;5031696;28;20076;-71
2022/06/06 10:36:17;;;;;;;8.82;3.10;;;15.20;99.90;;;;;;4960675;28;20051;-73
2022/06/06 10:39:15;;;;;;;10.40;3.20;;;15.20;99.90;;;;;;4963510;28;20039;-73
2022/06/06 10:42:02;;;;;;;10.43;3.53;;;15.20;99.90;;;;;;4931562;28;20051;-74
2022/06/06 10:44:48;;;;;;;10.48;2.85;;;15.20;99.90;;;;;;4962741;28;20058;-71
2022/06/06 10:47:32;;;;;;;8.02;2.65;;;15.20;99.90;;;;;;4964169;28;20050;-74
2022/06/06 10:50:11;;;;;;;8.90;2.63;;;15.20;99.90;;;;;;4965038;28;20038;-73
2022/06/06 10:53:01;;;;;;;9.70;2.90;;;15.20;99.90;;;;;;4962129;28;20889;-72
2022/06/06 10:55:37;;;;;;;9.93;3.08;;;15.20;99.90;;;;;;4962210;28;20877;-73
2022/06/06 10:58:41;;;;;;;9.20;3.58;;;15.20;99.90;;;;;;4963730;28;20055;-73
2022/06/06 11:01:25;;;;;;;12.40;3.40;;;15.30;99.90;;;;;;4963350;28;20508;-74
2022/06/06 11:04:15;;;;;;;8.50;2.60;;;15.30;99.90;;;;;;4964100;28;20039;-73
2022/06/06 11:07:26;;;;;;;6.55;2.85;;;15.30;99.90;;;;;;4963602;28;20042;-74
2022/06/06 11:10:16;;;;;;;9.07;2.53;;;15.40;99.60;;;;;;4953188;28;20027;-71
2022/06/06 11:12:42;;;;;;;9.00;2.72;;;15.50;99.40;;;;;;4984651;28;20044;-73
2022/06/06 11:15:07;;;;;;;11.02;3.00;;;15.50;99.70;;;;;;5036751;28;20045;-74
2022/06/06 11:17:54;;;;;;;12.65;3.03;;;15.60;99.90;;;;;;5027920;28;20070;-71
2022/06/06 11:20:41;;;;;;;9.18;2.90;;;15.60;99.90;;;;;;5033340;28;20033;-73
2022/06/06 11:23:25;;;;;;;11.68;2.97;;;15.70;99.90;;;;;;5031257;28;20032;-74
2022/06/06 11:25:54;;;;;;;8.95;2.97;;;15.70;99.90;;;;;;5029521;28;20123;-73
2022/06/06 11:28:38;;;;;;;10.13;2.80;;;15.80;99.80;;;;;;5030098;28;20037;-74
2022/06/06 11:31:25;;;;;;;13.43;3.53;;;15.80;99.90;;;;;;5034412;28;20447;-75
2022/06/06 11:34:02;;;;;;;13.23;3.38;;;15.80;99.90;;;;;;5033625;28;20326;-73
2022/06/06 11:37:09;;;;;;;11.02;3.10;;;15.90;99.80;;;;;;5012243;28;20025;-76
2022/06/06 11:39:59;;;;;;;10.18;3.25;;;15.90;99.00;;;;;;5034276;28;20033;-75
2022/06/06 11:42:56;;;;;;;9.10;2.70;;;16.10;98.60;;;;;;5029672;28;20160;-77
2022/06/06 11:45:49;;;;;;;6.95;2.50;;;16.20;97.20;;;;;;5034804;28;20036;-74
2022/06/06 11:48:45;;;;;;;9.68;2.63;;;16.20;97.40;;;;;;5036495;28;21803;-75
2022/06/06 11:51:28;;;;;;;9.60;3.17;;;16.30;96.80;;;;;;5017198;28;20883;-74
2022/06/06 11:54:30;;;;;;;11.57;3.03;;;16.20;97.60;;;;;;5034322;28;20441;-73
2022/06/06 11:57:12;;;;;;;10.18;2.72;;;16.20;98.10;;;;;;5032465;28;20041;-79
2022/06/06 12:00:11;;;;;;;13.23;3.00;;;16.10;98.10;;;;;;5011829;28;20036;-76
2022/06/06 12:03:16;;;;;;;11.02;3.17;;;16.00;98.10;;;;;;5016401;28;20127;-74
2022/06/06 12:05:51;;;;;;;9.35;3.03;;;15.90;98.00;;;;;;5039787;28;20035;-75
2022/06/06 12:08:35;;;;;;;10.05;2.95;;;15.90;98.10;;;;;;5018883;28;20331;-78
2022/06/06 12:11:26;;;;;;;9.07;3.10;;;15.90;98.20;;;;;;5036402;28;20178;-74
2022/06/06 12:14:34;;;;;;;11.05;2.90;;;16.00;98.40;;;;;;5037468;28;20043;-74
2022/06/06 12:17:05;;;;;;;7.60;2.40;;;16.10;97.90;;;;;;5025722;28;20048;-77
2022/06/06 12:19:55;;;;;;;10.18;2.60;;;16.20;97.40;;;;;;5037792;28;20081;-73
2022/06/06 12:22:21;;;;;;;;;;;16.30;97.20;;;;;;5035735;28;20665;-76
2022/06/06 12:25:00;;;;;;;10.20;2.78;;;16.40;97.00;;;;;;5020236;28;19916;-75
2022/06/06 12:28:07;;;;;;;8.68;2.63;;;16.50;97.20;;;;;;5037833;28;20107;-80
2022/06/06 12:30:54;;;;;;;8.68;2.30;;;16.60;96.30;;;;;;4974418;28;20054;-80
2022/06/06 12:33:46;;;;;;;9.63;2.55;;;16.70;96.20;;;;;;4975067;28;20239;-76
2022/06/06 12:36:25;;;;;;;8.80;2.25;;;16.80;96.40;;;;;;4945047;28;20197;-76
2022/06/06 12:39:02;;;;;;;7.47;2.10;;;16.90;94.90;;;;;;4978068;28;20161;-80
2022/06/06 12:41:58;;;;;;;7.72;2.30;;;16.80;95.00;;;;;;4960978;28;20050;-74
2022/06/06 12:45:01;;;;;;;9.98;2.83;;;16.80;95.70;;;;;;4973954;28;20137;-74
2022/06/06 12:47:30;;;;;;;8.68;3.20;;;16.80;95.70;;;;;;4968801;28;20093;-77
2022/06/06 12:50:27;;;;;;;8.30;2.70;;;16.80;95.70;;;;;;4962200;28;20043;-78
2022/06/06 12:53:12;;;;;;;8.93;2.80;;;16.80;96.80;;;;;;4961340;28;20821;-75
2022/06/06 12:56:17;;;;;;;10.80;3.28;;;16.90;96.40;;;;;;4971007;28;20042;-74
2022/06/06 12:59:06;;;;;;;10.50;3.70;;;16.80;96.30;;;;;;4973717;28;20153;-82
2022/06/06 13:01:53;;;;;;;9.35;3.10;;;16.70;96.50;;;;;;4967052;28;20130;-75
2022/06/06 13:04:27;;;;;;;9.93;3.75;;;16.60;96.40;;;;;;4972621;28;20037;-77
2022/06/06 13:07:21;;;;;;;10.30;3.63;;;16.50;97.10;;;;;;4984448;28;20068;-78
2022/06/06 13:10:03;;;;;;;13.23;3.85;;;16.40;97.00;;;;;;4981214;28;20038;-75
2022/06/06 13:12:49;;;;;;;10.15;3.55;;;16.30;97.10;;;;;;4979652;28;20141;-76
2022/06/06 13:15:14;;;;;;;11.07;3.47;;;16.40;96.80;;;;;;4981945;28;20496;-75
2022/06/06 13:17:57;;;;;;;8.75;2.33;;;16.50;96.60;;;;;;4981139;28;20042;-76
2022/06/06 13:20:33;;;;;;;10.32;3.75;;;16.60;96.20;;;;;;4976732;28;20109;-81
2022/06/06 13:23:23;;;;;;;10.35;3.08;;;16.70;95.90;;;;;;4975953;28;20100;-77
2022/06/06 13:26:00;;;;;;;11.23;4.65;;;16.80;95.90;;;;;;4981158;28;20038;-79
2022/06/06 13:28:31;;;;;;;11.07;3.33;;;17.00;95.70;;;;;;4982095;28;20092;-73
2022/06/06 13:31:28;;;;;;;11.30;3.55;;;17.10;95.90;;;;;;4980039;28;20516;-80
2022/06/06 13:34:08;;;;;;;12.52;3.40;;;17.20;96.10;;;;;;4980037;28;20135;-73
2022/06/06 13:36:57;;;;;;;9.48;2.70;;;17.40;95.40;;;;;;4982811;28;20034;-73
2022/06/06 13:39:34;;;;;;;8.32;2.80;;;17.40;94.40;;;;;;4979292;28;20038;-80
2022/06/06 13:42:28;;;;;;;6.00;2.22;;;17.50;94.40;;;;;;4974005;28;20496;-78
2022/06/06 13:45:28;;;;;;;9.55;3.20;;;17.70;93.70;;;;;;4979135;28;20625;-76
2022/06/06 13:48:06;;;;;;;8.75;2.53;;;17.80;93.00;;;;;;5012923;28;20470;-75
2022/06/06 13:50:53;;;;;;;11.18;3.30;;;18.00;93.00;;;;;;5011207;28;20034;-75
2022/06/06 13:53:24;;;;;;;9.68;3.20;;;18.00;92.80;;;;;;5018449;28;20416;-74
2022/06/06 13:56:13;;;;;;;14.32;4.40;;;18.10;93.70;;;;;;5016777;28;20084;-76
2022/06/06 13:58:53;;;;;;;10.50;4.20;;;18.20;91.10;;;;;;5012343;28;20033;-73
2022/06/06 14:01:37;;;;;;;10.63;3.70;;;18.30;91.10;;;;;;5019087;28;20044;-76
2022/06/06 14:04:30;;;;;;;11.57;3.50;;;18.30;90.00;;;;;;5019603;28;20028;-80
2022/06/06 14:06:56;;;;;;;9.93;3.75;;;18.30;91.20;;;;;;5020027;28;20029;-69
2022/06/06 14:09:36;;;;;;;10.10;2.85;;;18.20;91.60;;;;;;5017575;28;20026;-76
2022/06/06 14:12:50;;;;;;;9.13;2.65;;;18.20;91.60;;;;;;5023321;28;20043;-73